createdAt,value
2022-12-04T00:00:56.772Z,-4.77082
2022-12-04T00:05:58.468Z,-5.02041
2022-12-04T00:11:00.041Z,-4.85116
2022-12-04T00:16:01.796Z,-4.56664
2022-12-04T00:21:03.555Z,-4.85656
2022-12-04T00:26:05.233Z,-4.9839
2022-12-04T00:31:06.979Z,-5.08615
2022-12-04T00:36:08.612Z,-5.20681
2022-12-04T00:41:10.283Z,-5.49006
2022-12-04T00:46:12.267Z,-5.4926
2022-12-04T00:51:13.928Z,-5.23539
2022-12-04T00:56:18.466Z,-5.44783
2022-12-04T01:01:20.695Z,-5.51261
2022-12-04T01:06:22.614Z,-5.45831
2022-12-04T01:11:24.364Z,-5.86825
2022-12-04T01:16:26.205Z,-5.46498
2022-12-04T01:21:27.971Z,-5.9832
2022-12-04T01:26:30.063Z,-5.91747
2022-12-04T01:31:31.757Z,-5.89556
2022-12-04T01:36:33.520Z,-5.47196
2022-12-04T01:41:35.384Z,-5.76124
2022-12-04T01:46:37.011Z,-6.31884
2022-12-04T01:51:38.663Z,-6.32488
2022-12-04T01:56:40.327Z,-6.17563
2022-12-04T02:01:42.035Z,-6.12324
2022-12-04T02:06:43.694Z,-7.22287
2022-12-04T02:11:45.374Z,-6.42776
2022-12-04T02:16:47.112Z,-6.99711
2022-12-04T02:21:48.793Z,-6.75991
2022-12-04T02:26:50.486Z,-6.40903
2022-12-04T02:31:52.226Z,-7.44134
2022-12-04T02:36:54.044Z,-7.8046
2022-12-04T02:41:55.642Z,-7.14095
2022-12-04T02:46:57.319Z,-6.64718
2022-12-04T02:51:58.977Z,-7.27749
2022-12-04T02:57:00.596Z,-8.13515
2022-12-04T03:02:02.242Z,-7.45753
2022-12-04T03:07:04.012Z,-8.32694
2022-12-04T03:12:05.656Z,-8.41585
2022-12-04T03:17:07.419Z,-7.48897
2022-12-04T03:22:09.085Z,-7.88938
2022-12-04T03:27:10.893Z,-6.98726
2022-12-04T03:32:12.508Z,-6.82595
2022-12-04T03:37:14.131Z,-6.81674
2022-12-04T03:42:15.753Z,-7.09014
2022-12-04T03:47:17.429Z,-6.61289
2022-12-04T03:52:19.046Z,-6.90693
2022-12-04T03:57:20.685Z,-6.59669
2022-12-04T04:02:22.373Z,-6.31091
2022-12-04T04:07:24.098Z,-6.24676
2022-12-04T04:12:25.788Z,-6.44776
2022-12-04T04:17:27.428Z,-6.80277
2022-12-04T04:22:29.106Z,-6.88406
2022-12-04T04:27:30.810Z,-6.30709
2022-12-04T04:32:32.533Z,-6.13308
2022-12-04T04:37:34.200Z,-5.94796
2022-12-04T04:42:35.931Z,-5.43957
2022-12-04T04:47:37.590Z,-5.60787
2022-12-04T04:52:39.239Z,-6.1261
2022-12-04T04:57:40.869Z,-6.21374
2022-12-04T05:02:42.557Z,-6.41315
2022-12-04T05:07:44.302Z,-6.04449
2022-12-04T05:12:45.922Z,-5.88286
2022-12-04T05:17:47.632Z,-5.32462
2022-12-04T05:22:49.284Z,-6.67481
2022-12-04T05:27:50.934Z,-5.48689
2022-12-04T05:32:52.576Z,-5.3894
2022-12-04T05:37:54.231Z,-5.09726
2022-12-04T05:42:55.860Z,-5.15156
2022-12-04T05:47:57.451Z,-5.02708
2022-12-04T05:52:59.194Z,-5.37765
2022-12-04T05:58:00.850Z,-5.33891
2022-12-04T06:03:02.596Z,-5.39861
2022-12-04T06:08:04.351Z,-5.61549
2022-12-04T06:13:05.990Z,-5.6971
2022-12-04T06:18:07.699Z,-5.81649
2022-12-04T06:23:09.297Z,-5.93494
2022-12-04T06:28:11.182Z,-6.66909
2022-12-04T06:33:13.071Z,-5.73901
2022-12-04T06:38:14.806Z,-5.88318
2022-12-04T06:43:16.472Z,-5.75203
2022-12-04T06:48:18.185Z,-6.22803
2022-12-04T06:53:19.863Z,-7.15429
2022-12-04T06:58:21.466Z,-7.52041
2022-12-04T07:03:23.108Z,-6.86755
2022-12-04T07:08:24.753Z,-5.90128
2022-12-04T07:13:26.475Z,-5.93748
2022-12-04T07:18:28.187Z,-5.7749
2022-12-04T07:23:29.929Z,-6.33028
2022-12-04T07:28:31.777Z,-6.70529
2022-12-04T07:33:34.196Z,-6.48079
2022-12-04T07:38:35.894Z,-6.33313
2022-12-04T07:43:37.678Z,-6.93423
2022-12-04T07:48:39.342Z,-7.06506
2022-12-04T07:53:40.985Z,-6.91677
2022-12-04T07:58:42.805Z,-6.74149
2022-12-04T08:03:48.014Z,-6.02131
2022-12-04T08:08:50.349Z,-6.11435
2022-12-04T08:13:52.252Z,-6.0953
2022-12-04T08:18:53.915Z,-5.99273
2022-12-04T08:23:55.656Z,-6.17627
2022-12-04T08:28:57.323Z,-5.68122
2022-12-04T08:33:58.960Z,-5.35955
2022-12-04T08:39:00.625Z,-5.29477
2022-12-04T08:44:02.257Z,-6.38394
2022-12-04T08:49:03.993Z,-6.98282
2022-12-04T08:54:05.650Z,-6.85263
2022-12-04T08:59:07.285Z,-6.53033
2022-12-04T09:04:09.033Z,-6.27312
2022-12-04T09:09:10.708Z,-6.28264
2022-12-04T09:14:12.411Z,-5.45672
2022-12-04T09:19:14.148Z,-5.98765
2022-12-04T09:24:15.797Z,-6.10514
2022-12-04T09:29:17.457Z,-6.66179
2022-12-04T09:34:19.136Z,-5.69583
2022-12-04T09:39:20.745Z,-5.71583
2022-12-04T09:44:22.398Z,-5.9578
2022-12-04T09:49:24.126Z,-5.78728
2022-12-04T09:54:25.750Z,-5.21634
2022-12-04T09:59:27.427Z,-5.22396
2022-12-04T10:04:29.109Z,-5.7079
2022-12-04T10:09:30.909Z,-5.68694
2022-12-04T10:14:32.576Z,-5.95748
2022-12-04T10:19:34.271Z,-5.93811
2022-12-04T10:24:35.983Z,-6.05433
2022-12-04T10:29:37.631Z,-6.10006
2022-12-04T10:34:44.126Z,-5.82094
2022-12-04T10:39:47.652Z,-5.68948
2022-12-04T10:44:49.314Z,-5.48371
2022-12-04T10:49:50.967Z,-5.27445
2022-12-04T10:54:52.732Z,-5.97939
2022-12-04T10:59:54.682Z,-5.68853
2022-12-04T11:04:56.694Z,-5.74537
2022-12-04T11:09:58.634Z,-6.15404
2022-12-04T11:15:00.583Z,-5.86349
2022-12-04T11:20:02.439Z,-5.62915
2022-12-04T11:25:04.131Z,-5.75584
2022-12-04T11:30:05.842Z,-5.84126
2022-12-04T11:35:07.513Z,-5.9867
2022-12-04T11:40:09.189Z,-5.88604
2022-12-04T11:45:10.879Z,-5.59168
2022-12-04T11:50:12.740Z,-5.994
2022-12-04T11:55:14.742Z,-5.52626
2022-12-04T12:00:16.459Z,-5.19729
2022-12-04T12:05:18.222Z,-5.6809
2022-12-04T12:10:19.963Z,-5.23634
2022-12-04T12:15:21.596Z,-5.60692
2022-12-04T12:20:23.305Z,-5.71488
2022-12-04T12:25:25.105Z,-5.55516
2022-12-04T12:30:26.773Z,-6.38997
2022-12-04T12:35:28.362Z,-6.15595
2022-12-04T12:40:29.986Z,-6.47349
2022-12-04T12:45:31.766Z,-6.62971
2022-12-04T12:50:33.402Z,-6.54207
2022-12-04T12:55:35.015Z,-6.35568
2022-12-04T13:00:36.722Z,-6.84691
2022-12-04T13:05:38.434Z,-5.79776
2022-12-04T13:10:40.103Z,-5.726
2022-12-04T13:15:41.793Z,-6.03496
2022-12-04T13:20:43.532Z,-6.31408
2022-12-04T13:25:45.182Z,-6.4176
2022-12-04T13:30:46.833Z,-6.51762
2022-12-04T13:35:48.495Z,-6.61003
2022-12-04T13:40:50.282Z,-6.70275
2022-12-04T13:45:52.068Z,-6.65035
2022-12-04T13:50:53.788Z,-6.55001
2022-12-04T13:55:55.527Z,-7.01552
2022-12-04T14:00:57.343Z,-6.77388
2022-12-04T14:05:58.934Z,-6.65194
2022-12-04T14:11:01.012Z,-6.75482
2022-12-04T14:16:02.771Z,-7.57661
2022-12-04T14:21:04.350Z,-7.2197
2022-12-04T14:26:05.991Z,-7.7449
2022-12-04T14:31:07.931Z,-6.96376
2022-12-04T14:36:09.588Z,-7.09173
2022-12-04T14:41:11.198Z,-7.40292
2022-12-04T14:46:13.099Z,-6.97234
2022-12-04T14:51:14.762Z,-7.41022
2022-12-04T14:56:16.408Z,-6.8504
2022-12-04T15:01:18.211Z,-7.18668
2022-12-04T15:06:19.956Z,-7.09268
2022-12-04T15:11:21.730Z,-7.27781
2022-12-04T15:16:23.536Z,-7.19652
2022-12-04T15:21:25.211Z,-7.45658
2022-12-04T15:26:26.881Z,-7.68298
2022-12-04T15:31:28.689Z,-7.50231
2022-12-04T15:36:30.494Z,-7.82905
2022-12-04T15:41:32.101Z,-7.71887
2022-12-04T15:46:34.012Z,-7.2813
2022-12-04T15:51:35.730Z,-7.04505
2022-12-04T15:56:37.519Z,-7.12507
2022-12-04T16:01:39.361Z,-7.58899
2022-12-04T16:31:55.162Z,-7.78968
2022-12-04T16:37:01.204Z,-7.5655
2022-12-04T16:42:02.775Z,-7.5566
2022-12-04T16:47:04.573Z,-7.95511
2022-12-04T16:52:06.357Z,-7.82556
2022-12-04T16:57:08.003Z,-7.63694
2022-12-04T17:02:09.718Z,-6.42998
2022-12-04T17:07:11.509Z,-6.8666
2022-12-04T17:12:13.127Z,-6.91264
2022-12-04T17:17:14.797Z,-7.13873
2022-12-04T17:22:16.384Z,-6.37822
2022-12-04T17:27:17.966Z,-7.06093
2022-12-04T17:32:19.759Z,-6.36679
2022-12-04T17:37:21.398Z,-6.42776
2022-12-04T17:42:23.031Z,-6.22453
2022-12-04T17:47:24.703Z,-6.43729
2022-12-04T17:52:26.324Z,-6.58939
2022-12-04T17:57:27.955Z,-6.79356
2022-12-04T18:02:29.777Z,-5.94891
2022-12-04T18:07:31.531Z,-7.01298
2022-12-04T18:12:33.356Z,-7.03743
2022-12-04T18:17:35.061Z,-7.22986
2022-12-04T18:22:36.904Z,-6.74943
2022-12-04T18:27:41.825Z,-6.72942
2022-12-04T18:32:44.041Z,-6.15626
2022-12-04T18:37:45.664Z,-6.04227
2022-12-04T18:42:47.362Z,-5.53071
2022-12-04T18:47:49.064Z,-5.76632
2022-12-04T18:52:56.833Z,-5.86159
2022-12-04T18:58:00.682Z,-6.16865
2022-12-04T19:03:02.459Z,-5.90953
2022-12-04T19:08:04.133Z,-5.82316
2022-12-04T19:13:05.784Z,-6.16674
2022-12-04T19:18:07.506Z,-6.41633
2022-12-04T19:23:09.272Z,-6.25819
2022-12-04T19:28:10.872Z,-6.31313
2022-12-04T19:33:12.564Z,-6.23882
2022-12-04T19:38:14.180Z,-5.41925
2022-12-04T19:43:15.837Z,-6.15753
2022-12-04T19:48:17.543Z,-5.5215
2022-12-04T19:53:19.178Z,-5.72314
2022-12-04T19:58:20.819Z,-5.60152
2022-12-04T20:03:22.535Z,-6.81865
2022-12-04T20:08:24.231Z,-5.88
2022-12-04T20:13:25.993Z,-6.55351
2022-12-04T20:18:27.661Z,-6.58208
2022-12-04T20:23:29.300Z,-6.66274
2022-12-04T20:28:30.925Z,-6.40617
2022-12-04T20:33:32.702Z,-5.48022
2022-12-04T20:38:34.505Z,-6.36489
2022-12-04T20:43:36.169Z,-5.86159
2022-12-04T20:48:37.861Z,-4.27895
2022-12-04T20:53:39.520Z,-4.34182
2022-12-04T20:58:41.107Z,-4.48186
2022-12-04T21:03:42.772Z,-4.01062
2022-12-04T21:08:44.354Z,-3.73975
2022-12-04T21:13:45.972Z,-3.68132
2022-12-04T21:18:47.726Z,-4.19924
2022-12-04T21:23:49.401Z,-4.05158
2022-12-04T21:28:51.206Z,-4.42406
2022-12-04T21:33:52.908Z,-3.82422
2022-12-04T21:38:54.532Z,-4.52981
2022-12-04T21:43:56.200Z,-5.10964
2022-12-04T21:48:57.931Z,-3.94298
2022-12-04T21:53:59.565Z,-4.92325
2022-12-04T21:59:01.169Z,-4.46027
2022-12-04T22:04:02.865Z,-5.0274
2022-12-04T22:09:04.454Z,-4.251
2022-12-04T22:14:06.083Z,-4.86196
2022-12-04T22:19:07.790Z,-5.28302
2022-12-04T22:24:09.406Z,-5.43195
2022-12-04T22:29:48.017Z,-5.65455
2022-12-04T22:34:50.677Z,-5.26492
2022-12-04T22:39:52.303Z,-5.34113
2022-12-04T22:44:53.893Z,-5.23095
2022-12-04T22:49:56.086Z,-5.6247
2022-12-04T22:54:58.048Z,-5.61517
2022-12-04T22:59:59.865Z,-6.18865
2022-12-04T23:05:02.081Z,-6.17246
2022-12-04T23:10:03.742Z,-6.55986
2022-12-04T23:15:05.338Z,-5.69837
2022-12-04T23:20:07.077Z,-6.14896
2022-12-04T23:25:08.704Z,-5.92763
2022-12-04T23:30:10.506Z,-5.81967
2022-12-04T23:35:12.373Z,-5.6355
2022-12-04T23:40:13.997Z,-6.05338
2022-12-04T23:45:15.625Z,-6.5824
2022-12-04T23:50:17.322Z,-6.23565
2022-12-04T23:55:18.935Z,-5.98797
